Time;durP1;ratioP1;P1;durP2;ratioP2;P2;SDS_P1;SDS_P2;PMS_P1;PMS_P2;Temp;Humidity;BMP_temperature;BMP_pressure;BME280_temperature;BME280_humidity;BME280_pressure;Samples;Min_cycle;Max_cycle;Signal;HPM_P1;HPM_P2
2024/03/12 00:01:34;;;;;;;0.98;0.90;;;;;;;10.89;89.94;98474.00;5074850;28;20048;-64
2024/03/12 00:04:03;;;;;;;0.60;0.60;;;;;;;10.92;90.18;98479.03;5073634;28;20048;-64
2024/03/12 00:06:32;;;;;;;1.27;1.17;;;;;;;10.92;90.14;98479.03;5073398;28;20072;-64
2024/03/12 00:09:06;;;;;;;2.10;1.50;;;;;;;10.92;90.07;98476.47;5074515;28;20277;-64
2024/03/12 00:11:35;;;;;;;1.73;1.35;;;;;;;10.90;90.29;98476.50;5074806;28;20276;-64
2024/03/12 00:14:04;;;;;;;1.20;1.10;;;;;;;10.91;90.42;98477.34;5074660;28;20494;-64
2024/03/12 00:16:34;;;;;;;4.15;1.35;;;;;;;10.88;90.16;98477.41;5074607;28;20040;-64
2024/03/12 00:19:03;;;;;;;1.25;1.08;;;;;;;10.90;90.04;98480.75;5074645;28;20044;-64
2024/03/12 00:21:35;;;;;;;2.10;1.10;;;;;;;10.88;90.47;98477.41;5074547;28;20101;-64
2024/03/12 00:24:06;;;;;;;1.88;1.77;;;;;;;10.89;90.10;98479.09;5090201;28;20040;-64
2024/03/12 00:26:35;;;;;;;2.22;1.35;;;;;;;10.88;90.65;98477.41;5073159;28;20075;-64
2024/03/12 00:29:05;;;;;;;1.08;0.98;;;;;;;10.90;90.58;98476.50;5074104;28;20029;-64
2024/03/12 00:31:34;;;;;;;0.50;0.50;;;;;;;10.92;90.62;98474.75;5073103;28;20051;-64
2024/03/12 00:34:04;;;;;;;0.67;0.67;;;;;;;10.94;90.55;98477.28;5074312;28;20051;-64
2024/03/12 00:36:33;;;;;;;2.35;2.15;;;;;;;10.91;90.49;98479.91;5074107;28;20063;-64
2024/03/12 00:39:02;;;;;;;2.03;1.83;;;;;;;10.91;90.77;98482.44;5074328;28;20055;-64
2024/03/12 00:41:33;;;;;;;3.60;1.63;;;;;;;10.93;90.43;98485.81;5073025;28;20797;-64
2024/03/12 00:44:02;;;;;;;1.90;1.30;;;;;;;10.92;90.56;98484.13;5073803;28;20055;-64
2024/03/12 00:46:31;;;;;;;1.27;1.00;;;;;;;10.91;90.64;98478.19;5072697;28;20033;-64
2024/03/12 00:49:00;;;;;;;1.00;0.95;;;;;;;10.92;90.36;98481.59;5073781;28;20043;-64
2024/03/12 00:51:29;;;;;;;2.00;1.83;;;;;;;10.95;90.75;98479.78;5074105;28;20078;-64
2024/03/12 00:53:59;;;;;;;1.20;1.10;;;;;;;11.01;90.83;98479.69;5073939;28;20045;-64
2024/03/12 00:56:28;;;;;;;6.57;1.65;;;;;;;11.05;90.20;98470.22;5074308;28;20140;-64
2024/03/12 00:58:58;;;;;;;1.10;1.00;;;;;;;11.08;89.96;98470.16;5073578;28;20041;-64
2024/03/12 01:01:27;;;;;;;0.80;0.80;;;;;;;11.09;89.78;98471.81;5072486;28;20052;-64
2024/03/12 01:03:56;;;;;;;3.72;1.55;;;;;;;11.09;89.69;98476.94;5073283;28;20047;-64
2024/03/12 01:06:25;;;;;;;0.65;0.65;;;;;;;11.10;89.20;98473.50;5073986;28;20036;-64
2024/03/12 01:08:55;;;;;;;6.07;2.28;;;;;;;11.11;89.17;98475.22;5073650;28;20082;-64
2024/03/12 01:11:23;;;;;;;1.48;1.13;;;;;;;11.12;89.13;98471.75;5073866;28;20094;-64
2024/03/12 01:13:54;;;;;;;1.98;1.75;;;;;;;11.14;88.99;98480.22;5073829;28;20040;-64
2024/03/12 01:16:25;;;;;;;12.15;1.55;;;;;;;11.15;88.92;98477.66;5073819;28;20040;-65
2024/03/12 01:18:53;;;;;;;2.15;1.73;;;;;;;11.15;88.86;98481.91;5073473;28;20045;-65
2024/03/12 01:21:22;;;;;;;2.27;2.10;;;;;;;11.15;88.98;98487.88;5073750;28;20037;-64
2024/03/12 01:23:51;;;;;;;1.37;1.27;;;;;;;11.14;88.68;98485.31;5073447;28;20327;-64
2024/03/12 01:26:20;;;;;;;1.63;1.40;;;;;;;11.13;88.81;98476.00;5073319;28;20522;-64
2024/03/12 01:28:51;;;;;;;2.38;2.17;;;;;;;11.12;88.76;98484.53;5073720;28;20033;-64
2024/03/12 01:31:21;;;;;;;2.28;1.38;;;;;;;11.12;88.40;98480.25;5072393;28;20118;-64
2024/03/12 01:33:52;;;;;;;1.38;0.88;;;;;;;11.12;88.99;98477.72;5073422;28;20123;-64
2024/03/12 01:36:34;;;;;;;1.80;1.67;;;;;;;11.13;88.67;98478.56;5073576;28;20487;-64
2024/03/12 01:39:07;;;;;;;6.05;2.47;;;;;;;11.13;88.66;98483.66;5073622;28;20040;-64
2024/03/12 01:41:41;;;;;;;2.13;1.83;;;;;;;11.14;88.89;98481.06;5072310;28;20137;-64
2024/03/12 01:44:11;;;;;;;2.85;1.90;;;;;;;11.12;88.99;98481.97;5073815;28;20106;-64
2024/03/12 01:46:39;;;;;;;1.07;0.97;;;;;;;11.16;88.75;98481.88;5072234;28;20128;-64
2024/03/12 01:49:10;;;;;;;8.60;1.33;;;;;;;11.16;88.85;98478.47;5073736;28;20288;-64
2024/03/12 01:51:40;;;;;;;0.88;0.88;;;;;;;11.15;88.63;98481.91;5073323;28;20068;-64
2024/03/12 01:54:09;;;;;;;1.42;1.33;;;;;;;11.14;88.67;98477.66;5074082;28;20087;-64
2024/03/12 01:56:39;;;;;;;1.25;1.15;;;;;;;11.14;88.84;98477.66;5072172;28;20051;-64
2024/03/12 01:59:08;;;;;;;10.30;2.95;;;;;;;11.11;88.42;98475.22;5073105;28;20049;-64
2024/03/12 02:01:37;;;;;;;0.97;0.87;;;;;;;11.14;88.29;98475.97;5072210;28;20041;-65
2024/03/12 02:04:10;;;;;;;8.07;1.95;;;;;;;11.13;88.44;98484.47;5073723;28;20048;-64
2024/03/12 02:06:40;;;;;;;2.25;2.05;;;;;;;11.11;88.62;98486.22;5073180;28;20059;-65
2024/03/12 02:09:12;;;;;;;3.00;1.57;;;;;;;11.10;88.68;98481.16;5055083;28;20076;-64
2024/03/12 02:11:41;;;;;;;1.50;1.15;;;;;;;11.10;88.63;98487.13;5073329;28;20261;-64
2024/03/12 02:14:10;;;;;;;1.33;1.08;;;;;;;11.10;88.68;98481.16;5074561;28;20052;-64
2024/03/12 02:16:39;;;;;;;2.23;1.40;;;;;;;11.11;88.55;98486.22;5077280;28;20394;-64
2024/03/12 02:19:08;;;;;;;1.52;1.42;;;;;;;11.14;88.51;98491.28;5076676;28;20277;-64
2024/03/12 02:21:38;;;;;;;1.48;1.33;;;;;;;11.14;88.41;98485.31;5076881;28;20036;-64
2024/03/12 02:24:09;;;;;;;3.08;2.08;;;;;;;11.14;88.60;98490.44;5076539;28;20055;-64
2024/03/12 02:26:38;;;;;;;1.77;1.58;;;;;;;11.16;88.42;98496.34;5076541;28;20414;-64
2024/03/12 02:29:09;;;;;;;1.13;1.05;;;;;;;11.20;88.26;98500.53;5076670;28;20458;-64
2024/03/12 02:31:38;;;;;;;3.22;2.40;;;;;;;11.24;87.89;98497.03;5077280;28;20382;-64
2024/03/12 02:34:07;;;;;;;6.38;3.05;;;;;;;11.28;87.67;98503.72;5076905;28;20494;-64
2024/03/12 02:36:36;;;;;;;1.67;1.45;;;;;;;11.28;87.26;98503.72;5076397;28;20047;-64
2024/03/12 02:39:06;;;;;;;2.60;2.35;;;;;;;11.28;87.25;98503.72;5076185;28;20486;-64
2024/03/12 02:41:40;;;;;;;1.98;1.80;;;;;;;11.28;87.20;98494.38;5076530;28;20072;-64
2024/03/12 02:44:09;;;;;;;5.35;2.67;;;;;;;11.27;87.15;98513.13;5075320;28;20380;-64
2024/03/12 02:46:38;;;;;;;;;;;;;;;11.24;87.32;98507.25;5076687;28;20056;-64
2024/03/12 02:49:07;;;;;;;0.95;0.95;;;;;;;11.21;87.44;98512.41;5076119;28;19920;-64
2024/03/12 02:51:36;;;;;;;2.67;2.20;;;;;;;11.18;87.72;98512.50;5076089;28;20451;-65
2024/03/12 02:54:05;;;;;;;1.08;0.98;;;;;;;11.16;88.37;98511.66;5074936;28;20503;-66
2024/03/12 02:56:34;;;;;;;10.03;1.77;;;;;;;11.01;88.49;98494.16;5076231;28;20045;-64
2024/03/12 02:59:04;;;;;;;1.50;1.33;;;;;;;11.08;88.54;98505.91;5075750;28;20139;-64
2024/03/12 03:01:33;;;;;;;1.17;1.08;;;;;;;11.06;88.95;98508.47;5076175;28;20040;-64
2024/03/12 03:04:02;;;;;;;2.35;2.03;;;;;;;11.01;89.29;98506.91;5075790;28;20490;-64
2024/03/12 03:06:31;;;;;;;1.63;1.52;;;;;;;11.01;89.58;98514.56;5074843;28;20078;-64
2024/03/12 03:09:01;;;;;;;1.02;0.93;;;;;;;10.99;89.86;98511.22;5074661;28;20044;-64
2024/03/12 03:11:30;;;;;;;1.80;1.63;;;;;;;10.94;90.19;98508.72;5075982;28;20055;-64
2024/03/12 03:13:58;;;;;;;0.93;0.88;;;;;;;10.96;90.24;98516.38;5058006;28;20297;-64
2024/03/12 03:16:31;;;;;;;0.68;0.68;;;;;;;10.95;90.56;98509.56;5074693;28;20044;-64
2024/03/12 03:19:00;;;;;;;11.52;2.88;;;;;;;10.92;90.53;98512.22;5075754;28;20491;-64
2024/03/12 03:21:29;;;;;;;2.15;1.35;;;;;;;10.88;90.65;98523.34;5074415;28;20045;-64
2024/03/12 03:23:58;;;;;;;1.88;1.77;;;;;;;10.89;90.90;98522.47;5075483;28;20040;-64
2024/03/12 03:26:27;;;;;;;1.10;1.03;;;;;;;10.89;91.08;98525.88;5073941;28;20039;-65
2024/03/12 03:28:56;;;;;;;1.97;1.87;;;;;;;10.85;91.63;98524.25;5075452;28;20033;-64
2024/03/12 03:31:26;;;;;;;1.15;1.05;;;;;;;10.83;91.63;98527.69;5075515;28;20392;-65
2024/03/12 03:33:58;;;;;;;1.85;1.30;;;;;;;10.83;91.83;98535.34;5075813;28;20131;-65
2024/03/12 03:36:27;;;;;;;1.33;1.20;;;;;;;10.82;91.97;98529.44;5075467;28;20054;-64
2024/03/12 03:38:56;;;;;;;1.17;1.08;;;;;;;10.72;92.19;98513.44;5076167;28;20044;-64
2024/03/12 03:41:25;;;;;;;1.38;1.20;;;;;;;10.74;92.27;98532.13;5074106;28;20403;-63
2024/03/12 03:43:54;;;;;;;4.82;1.05;;;;;;;10.73;92.52;98543.19;5075686;28;20040;-64
2024/03/12 03:46:24;;;;;;;0.98;0.95;;;;;;;10.72;92.45;98538.13;5075263;28;20059;-64
2024/03/12 03:48:54;;;;;;;0.40;0.40;;;;;;;10.71;92.69;98539.84;5075398;28;20162;-64
2024/03/12 03:51:25;;;;;;;1.92;1.52;;;;;;;10.69;93.02;98539.03;5094347;28;20036;-64
2024/03/12 03:53:55;;;;;;;5.20;1.50;;;;;;;10.69;92.95;98543.28;5095350;28;20101;-63
2024/03/12 03:56:24;;;;;;;4.57;1.02;;;;;;;10.69;93.29;98539.03;5094032;28;20032;-64
2024/03/12 03:58:56;;;;;;;1.50;1.40;;;;;;;10.69;93.65;98544.13;5094861;28;20127;-64
2024/03/12 04:01:28;;;;;;;0.75;0.75;;;;;;;10.68;93.52;98545.00;5094035;28;20117;-63
2024/03/12 04:03:58;;;;;;;0.98;0.95;;;;;;;10.70;93.35;98545.00;5095228;28;20418;-64
2024/03/12 04:06:29;;;;;;;1.67;1.58;;;;;;;10.69;93.65;98543.28;5093734;28;20047;-64
2024/03/12 04:08:58;;;;;;;1.38;1.27;;;;;;;10.67;93.64;98551.00;5095365;28;20052;-64
2024/03/12 04:11:26;;;;;;;2.92;2.10;;;;;;;10.66;93.85;98554.41;5095072;28;20119;-64
2024/03/12 04:13:58;;;;;;;1.67;1.58;;;;;;;10.64;93.57;98553.59;5095298;28;20068;-64
2024/03/12 04:16:27;;;;;;;2.63;2.42;;;;;;;10.65;94.09;98557.00;5094646;28;20500;-64
2024/03/12 04:18:58;;;;;;;2.28;1.92;;;;;;;10.65;93.82;98557.81;5094927;28;20122;-64
2024/03/12 04:21:29;;;;;;;0.80;0.80;;;;;;;10.62;93.97;98563.00;5093586;28;20486;-64
2024/03/12 04:23:58;;;;;;;1.55;1.45;;;;;;;10.60;93.72;98564.72;5095144;28;20111;-64
2024/03/12 04:26:28;;;;;;;1.43;1.33;;;;;;;10.59;93.83;98573.25;5094663;28;20512;-64
2024/03/12 04:28:58;;;;;;;2.35;1.65;;;;;;;10.60;94.10;98572.38;5092942;28;20051;-64
2024/03/12 04:31:27;;;;;;;1.33;1.23;;;;;;;10.59;94.15;98577.50;5094310;28;20044;-64
2024/03/12 04:33:55;;;;;;;0.77;0.77;;;;;;;10.54;94.02;98569.94;5094217;28;20044;-64
2024/03/12 04:36:24;;;;;;;3.27;2.37;;;;;;;10.57;94.30;98571.59;5093249;28;20067;-63
2024/03/12 04:38:55;;;;;;;2.90;1.90;;;;;;;10.54;94.47;98569.94;5092531;28;20043;-63
2024/03/12 04:41:24;;;;;;;1.13;1.02;;;;;;;10.56;94.55;98577.53;5094396;28;20044;-63
2024/03/12 04:43:53;;;;;;;1.57;1.47;;;;;;;10.52;94.78;98576.78;5094391;28;20488;-63
2024/03/12 04:46:22;;;;;;;2.43;1.03;;;;;;;10.52;94.56;98586.13;5094471;28;20320;-64
2024/03/12 04:48:50;;;;;;;3.23;1.70;;;;;;;10.55;94.88;98584.38;5094351;28;20111;-64
2024/03/12 04:51:19;;;;;;;1.07;0.70;;;;;;;10.55;94.69;98588.63;5094111;28;20044;-64
2024/03/12 04:53:48;;;;;;;0.73;0.73;;;;;;;10.53;94.60;98593.75;5092717;28;20280;-64
2024/03/12 04:56:18;;;;;;;1.33;1.23;;;;;;;10.53;95.07;98593.75;5094215;28;20136;-64
2024/03/12 04:58:47;;;;;;;4.32;1.83;;;;;;;10.52;95.09;98596.34;5093795;28;20482;-64
2024/03/12 05:01:17;;;;;;;1.77;1.63;;;;;;;10.50;95.03;98598.94;5092585;28;20452;-64
2024/03/12 05:03:46;;;;;;;1.95;1.63;;;;;;;10.50;95.05;98608.28;5094326;28;20089;-64
2024/03/12 05:06:16;;;;;;;1.88;1.70;;;;;;;10.49;95.22;98612.53;5075901;28;20040;-64
2024/03/12 05:08:45;;;;;;;1.48;1.25;;;;;;;10.50;95.07;98614.25;5094117;28;20151;-64
2024/03/12 05:11:14;;;;;;;1.48;0.73;;;;;;;10.49;95.04;98617.63;5093767;28;20039;-64
2024/03/12 05:13:45;;;;;;;2.40;2.15;;;;;;;10.47;95.38;98619.38;5093776;28;20048;-64
2024/03/12 05:16:14;;;;;;;1.15;1.13;;;;;;;10.47;95.17;98624.47;5093942;28;20097;-64
2024/03/12 05:18:43;;;;;;;5.72;2.13;;;;;;;10.45;95.27;98636.44;5092003;28;20498;-64
2024/03/12 05:21:12;;;;;;;1.33;1.15;;;;;;;10.46;95.31;98627.88;5093893;28;20041;-64
2024/03/12 05:23:41;;;;;;;15.80;4.70;;;;;;;10.46;95.51;98633.00;5093851;28;20040;-64
2024/03/12 05:26:11;;;;;;;1.67;1.35;;;;;;;10.49;95.77;98638.03;5093558;28;20040;-64
2024/03/12 05:28:41;;;;;;;1.73;1.63;;;;;;;10.50;95.52;98632.09;5094186;28;20043;-64
2024/03/12 05:31:21;;;;;;;1.48;1.38;;;;;;;10.52;95.61;98632.91;5092515;28;20037;-64
2024/03/12 05:33:51;;;;;;;1.70;1.55;;;;;;;10.53;95.51;98639.66;5093824;28;20077;-64
2024/03/12 05:36:24;;;;;;;4.10;2.07;;;;;;;10.55;95.69;98640.50;5094421;28;20390;-64
2024/03/12 05:39:04;;;;;;;3.40;2.10;;;;;;;10.56;95.70;98642.19;5093735;28;20051;-64
2024/03/12 05:41:49;;;;;;;1.73;1.33;;;;;;;10.56;95.75;98644.72;5094387;28;20048;-64
2024/03/12 05:49:52;;;;;;;4.60;2.75;;;;;;;10.54;95.91;98661.78;5096868;28;20052;-64
2024/03/12 05:52:20;;;;;;;0.60;0.60;;;;;;;10.58;95.63;98660.84;5096499;28;20036;-64
2024/03/12 05:54:51;;;;;;;2.47;2.23;;;;;;;10.61;95.77;98658.25;5096602;28;20272;-64
2024/03/12 05:57:20;;;;;;;0.90;0.70;;;;;;;10.65;96.17;98664.97;5097590;28;20036;-64
2024/03/12 05:59:49;;;;;;;3.00;1.70;;;;;;;10.70;96.02;98673.38;5097250;28;20040;-64
2024/03/12 06:02:20;;;;;;;0.80;0.80;;;;;;;10.75;95.96;98671.59;5097515;28;20050;-64
2024/03/12 06:04:49;;;;;;;2.72;2.53;;;;;;;10.77;95.88;98674.97;5096216;28;20040;-65
2024/03/12 06:07:18;;;;;;;1.80;1.50;;;;;;;10.83;95.97;98668.91;5097479;28;20037;-65
2024/03/12 06:09:49;;;;;;;2.78;2.42;;;;;;;10.86;95.94;98673.13;5097249;28;20067;-64
2024/03/12 06:12:18;;;;;;;1.77;1.50;;;;;;;10.92;95.63;98678.94;5096173;28;20044;-63
2024/03/12 06:14:47;;;;;;;2.60;1.75;;;;;;;10.95;95.96;98672.94;5097177;28;20539;-64
2024/03/12 06:17:16;;;;;;;2.35;1.80;;;;;;;10.94;95.63;98666.19;5097332;28;20043;-64
2024/03/12 06:19:46;;;;;;;3.53;1.65;;;;;;;11.00;95.51;98671.16;5097204;28;20028;-64
2024/03/12 06:22:16;;;;;;;2.72;2.42;;;;;;;11.03;95.74;98673.66;5096738;28;20059;-64
2024/03/12 06:24:47;;;;;;;4.18;2.95;;;;;;;11.05;95.42;98685.53;5097171;28;20052;-64
2024/03/12 06:27:18;;;;;;;8.07;2.15;;;;;;;11.06;95.33;98692.31;5095666;28;20051;-64
2024/03/12 06:29:51;;;;;;;3.92;3.63;;;;;;;11.10;95.28;98682.88;5097800;28;20113;-64
2024/03/12 06:32:20;;;;;;;2.53;1.77;;;;;;;11.14;95.03;98694.72;5096602;28;20068;-64
2024/03/12 06:34:51;;;;;;;5.40;1.80;;;;;;;11.19;95.03;98703.13;5096846;28;20040;-64
2024/03/12 06:37:20;;;;;;;3.05;2.75;;;;;;;11.24;94.95;98702.19;5096210;28;20044;-64
2024/03/12 06:39:49;;;;;;;6.93;2.93;;;;;;;11.27;94.88;98712.34;5096737;28;20040;-64
2024/03/12 06:42:19;;;;;;;4.57;1.73;;;;;;;11.25;94.54;98706.41;5096562;28;20032;-64
2024/03/12 06:44:49;;;;;;;4.85;2.95;;;;;;;11.22;94.50;98703.94;5096327;28;20055;-64
2024/03/12 06:47:20;;;;;;;3.33;2.67;;;;;;;11.24;94.33;98716.66;5096323;28;20134;-64
2024/03/12 06:49:51;;;;;;;1.95;1.75;;;;;;;11.26;94.25;98715.75;5095403;28;20111;-64
2024/03/12 06:52:22;;;;;;;2.65;2.45;;;;;;;11.29;94.07;98714.88;5096366;28;20371;-64
2024/03/12 06:54:52;;;;;;;3.40;3.05;;;;;;;11.31;93.99;98718.22;5096470;28;20052;-64
2024/03/12 06:57:22;;;;;;;3.42;2.50;;;;;;;11.29;93.74;98715.72;5096168;28;20040;-64
2024/03/12 06:59:51;;;;;;;3.90;2.75;;;;;;;11.31;93.71;98719.06;5077473;28;20410;-64
2024/03/12 07:02:22;;;;;;;3.35;1.90;;;;;;;11.30;93.48;98722.50;5094987;28;20130;-64
2024/03/12 07:04:53;;;;;;;2.45;2.13;;;;;;;11.32;93.45;98722.47;5095161;28;20040;-64
2024/03/12 07:07:23;;;;;;;1.98;1.45;;;;;;;11.33;92.94;98721.59;5096068;28;20100;-64
2024/03/12 07:09:54;;;;;;;2.42;2.22;;;;;;;11.34;93.11;98723.28;5096152;28;20044;-64
2024/03/12 07:12:25;;;;;;;1.75;1.52;;;;;;;11.37;92.95;98729.16;5095914;28;20036;-64
2024/03/12 07:14:55;;;;;;;2.67;2.35;;;;;;;11.40;92.82;98728.25;5095390;28;20044;-64
2024/03/12 07:17:24;;;;;;;2.35;1.95;;;;;;;11.45;92.67;98726.47;5096004;28;20051;-64
2024/03/12 07:19:58;;;;;;;4.40;2.60;;;;;;;11.48;92.49;98726.41;5096041;28;20047;-64
2024/03/12 07:22:28;;;;;;;3.03;2.17;;;;;;;11.52;92.68;98733.13;5094724;28;20044;-64
2024/03/12 07:24:56;;;;;;;7.80;3.17;;;;;;;11.55;92.42;98727.97;5095383;28;20044;-64
2024/03/12 07:27:26;;;;;;;2.53;1.70;;;;;;;11.57;92.31;98736.44;5095825;28;20051;-64
2024/03/12 07:29:55;;;;;;;3.00;2.47;;;;;;;11.56;92.09;98745.00;5095889;28;20091;-64
2024/03/12 07:32:23;;;;;;;1.63;1.53;;;;;;;11.58;92.17;98743.25;5077015;28;20293;-64
2024/03/12 07:34:52;;;;;;;3.43;2.67;;;;;;;11.52;91.87;98740.78;5095341;28;20482;-65
2024/03/12 07:37:22;;;;;;;6.03;2.80;;;;;;;11.58;91.73;98748.38;5095881;28;20396;-64
2024/03/12 07:39:51;;;;;;;2.85;2.65;;;;;;;11.60;91.52;98750.88;5095707;28;20551;-64
2024/03/12 07:42:20;;;;;;;2.50;2.30;;;;;;;11.60;91.41;98749.16;5093906;28;20432;-64
2024/03/12 07:44:50;;;;;;;2.88;2.58;;;;;;;11.62;91.17;98752.53;5094110;28;20494;-64
2024/03/12 07:47:19;;;;;;;4.10;3.55;;;;;;;11.58;91.07;98750.91;5095441;28;20494;-63
2024/03/12 07:49:48;;;;;;;3.93;3.43;;;;;;;11.61;90.93;98753.41;5094229;28;20032;-64
2024/03/12 07:52:17;;;;;;;2.07;1.87;;;;;;;11.60;90.91;98761.94;5093917;28;20385;-64
2024/03/12 07:54:47;;;;;;;2.58;2.38;;;;;;;11.58;90.67;98763.69;5095315;28;20582;-63
2024/03/12 07:57:18;;;;;;;2.55;2.35;;;;;;;11.61;90.67;98763.63;5093954;28;20083;-66
2024/03/12 07:59:49;;;;;;;4.15;3.15;;;;;;;11.56;90.56;98755.22;5095182;28;20067;-64
2024/03/12 08:02:21;;;;;;;2.67;1.93;;;;;;;11.67;90.56;98768.63;5095663;28;20481;-64
2024/03/12 08:04:50;;;;;;;3.35;2.70;;;;;;;11.70;90.71;98773.72;5095421;28;20047;-65
2024/03/12 08:07:20;;;;;;;5.80;1.52;;;;;;;11.77;90.31;98766.75;5094747;28;20067;-64
2024/03/12 08:09:50;;;;;;;3.47;2.35;;;;;;;11.80;90.34;98780.31;5094936;28;20143;-64
2024/03/12 08:12:20;;;;;;;4.05;3.20;;;;;;;11.80;90.20;98780.31;5094259;28;20051;-64
2024/03/12 08:14:49;;;;;;;2.60;2.33;;;;;;;11.85;90.12;98788.72;5094783;28;20043;-64
2024/03/12 08:17:18;;;;;;;1.85;1.10;;;;;;;11.92;90.18;98777.53;5094771;28;20815;-64
2024/03/12 08:19:48;;;;;;;2.58;2.20;;;;;;;11.99;90.17;98781.63;5094775;28;20055;-64
2024/03/12 08:22:19;;;;;;;2.33;1.80;;;;;;;12.02;89.76;98780.72;5086552;28;20379;-65
2024/03/12 08:24:50;;;;;;;1.83;1.67;;;;;;;12.04;89.70;98787.47;5074580;28;20072;-64
2024/03/12 08:27:19;;;;;;;3.95;3.55;;;;;;;12.03;89.44;98788.34;5074721;28;20491;-64
2024/03/12 08:29:49;;;;;;;6.90;3.42;;;;;;;12.03;89.20;98793.47;5074350;28;20164;-65
2024/03/12 08:32:20;;;;;;;3.15;2.05;;;;;;;12.06;88.97;98793.41;5074059;28;20076;-65
2024/03/12 08:34:51;;;;;;;3.72;3.03;;;;;;;12.05;88.62;98791.72;5074296;28;20055;-64
2024/03/12 08:37:22;;;;;;;4.50;3.05;;;;;;;12.06;88.46;98783.19;5073094;28;20049;-64
2024/03/12 08:39:52;;;;;;;2.78;2.28;;;;;;;12.09;88.34;98788.22;5073958;28;20059;-64
2024/03/12 08:42:22;;;;;;;4.57;3.20;;;;;;;12.07;88.07;98773.78;5073957;28;20139;-64
2024/03/12 08:44:51;;;;;;;5.45;2.58;;;;;;;12.16;88.42;98782.97;5074520;28;20052;-64
2024/03/12 08:47:20;;;;;;;2.73;2.17;;;;;;;12.16;88.00;98788.09;5072822;28;20048;-64
2024/03/12 08:49:49;;;;;;;1.58;1.30;;;;;;;12.17;88.11;98789.75;5074095;28;20411;-64
2024/03/12 08:52:18;;;;;;;3.38;3.08;;;;;;;12.18;88.05;98794.03;5072567;28;20044;-64
2024/03/12 08:54:47;;;;;;;3.15;2.20;;;;;;;12.20;87.86;98799.94;5072641;28;20135;-64
2024/03/12 08:57:18;;;;;;;1.65;1.55;;;;;;;12.25;87.68;98798.13;5072532;28;20036;-66
2024/03/12 08:59:47;;;;;;;2.38;1.77;;;;;;;12.28;87.64;98800.63;5072508;28;20045;-64
2024/03/12 09:02:16;;;;;;;1.97;1.77;;;;;;;12.27;87.28;98802.34;5073713;28;20048;-64
2024/03/12 09:04:45;;;;;;;2.25;1.88;;;;;;;12.25;86.81;98798.13;5073891;28;20174;-64
2024/03/12 09:07:16;;;;;;;2.20;1.67;;;;;;;12.28;86.87;98805.75;5073754;28;20044;-64
2024/03/12 09:09:45;;;;;;;5.15;3.05;;;;;;;12.32;86.68;98813.31;5091427;28;20386;-64
2024/03/12 09:12:21;;;;;;;2.65;2.45;;;;;;;12.38;86.83;98804.66;5093851;28;20047;-65
2024/03/12 09:14:50;;;;;;;2.97;2.67;;;;;;;12.39;86.42;98807.19;5093817;28;20135;-64
2024/03/12 09:17:18;;;;;;;3.37;2.60;;;;;;;12.49;86.28;98811.22;5093823;28;20047;-64
2024/03/12 09:19:48;;;;;;;2.42;2.25;;;;;;;12.53;86.20;98815.41;5093643;28;20397;-64
2024/03/12 09:22:17;;;;;;;3.22;1.48;;;;;;;12.55;85.46;98812.78;5093953;28;20044;-64
2024/03/12 09:24:46;;;;;;;2.92;1.42;;;;;;;12.66;85.23;98816.81;5093632;28;20063;-64
2024/03/12 09:27:15;;;;;;;5.90;3.60;;;;;;;12.70;85.22;98809.88;5093742;28;20123;-63
2024/03/12 09:29:45;;;;;;;2.17;1.90;;;;;;;12.87;84.73;98812.91;5093762;28;20040;-63
2024/03/12 09:32:14;;;;;;;5.75;2.90;;;;;;;13.10;84.49;98822.63;5092772;28;20036;-64
2024/03/12 09:34:43;;;;;;;2.37;2.17;;;;;;;13.27;83.81;98826.44;5092797;28;20043;-64
2024/03/12 09:37:12;;;;;;;5.10;3.50;;;;;;;13.32;83.46;98827.16;5093384;28;20064;-64
2024/03/12 09:39:41;;;;;;;2.80;2.42;;;;;;;13.29;82.63;98832.34;5093493;28;20036;-65
2024/03/12 09:42:10;;;;;;;2.65;1.80;;;;;;;13.21;82.25;98831.72;5092485;28;20107;-65
2024/03/12 09:44:39;;;;;;;3.40;3.03;;;;;;;13.15;82.26;98831.88;5093912;28;20043;-64
2024/03/12 09:47:12;;;;;;;2.30;2.10;;;;;;;13.07;82.54;98844.03;5093563;28;20037;-64
2024/03/12 09:49:41;;;;;;;4.53;3.33;;;;;;;13.02;82.44;98835.59;5075689;28;20052;-64
2024/03/12 09:52:12;;;;;;;4.65;3.05;;;;;;;13.01;82.41;98839.03;5093494;28;20101;-64
2024/03/12 09:54:41;;;;;;;2.60;2.40;;;;;;;12.99;82.08;98840.78;5093872;28;20067;-64
2024/03/12 09:57:11;;;;;;;7.37;3.30;;;;;;;13.01;82.72;98833.91;5093520;28;20435;-64
2024/03/12 09:59:41;;;;;;;1.83;1.73;;;;;;;12.97;82.29;98842.53;5093506;28;20036;-64
2024/03/12 10:02:11;;;;;;;;;;;;;;;12.95;82.71;98846.88;5093681;28;20501;-64
2024/03/12 10:04:40;;;;;;;2.20;1.60;;;;;;;12.89;82.48;98852.13;5092460;28;19920;-64
2024/03/12 10:07:09;;;;;;;3.88;3.10;;;;;;;12.95;82.70;98861.38;5093407;28;20068;-64
2024/03/12 10:09:39;;;;;;;4.60;3.13;;;;;;;12.92;82.78;98859.72;5082374;28;20453;-64
2024/03/12 10:12:10;;;;;;;4.05;3.42;;;;;;;12.94;82.48;98852.84;5071997;28;20061;-64
2024/03/12 10:14:39;;;;;;;6.20;2.95;;;;;;;12.77;82.80;98834.47;5073171;28;20051;-63
2024/03/12 10:17:13;;;;;;;2.35;2.10;;;;;;;12.88;83.05;98845.31;5073175;28;20086;-64
2024/03/12 10:19:50;;;;;;;15.88;2.58;;;;;;;12.85;83.47;98847.94;5073320;28;20045;-63
2024/03/12 10:22:20;;;;;;;5.65;2.90;;;;;;;12.97;83.37;98857.91;5072954;28;20040;-64
2024/03/12 10:24:51;;;;;;;2.03;1.83;;;;;;;13.02;83.48;98856.09;5073114;28;20044;-64
2024/03/12 10:27:21;;;;;;;2.40;1.83;;;;;;;13.10;83.40;98861.88;5072468;28;20511;-64
2024/03/12 10:29:50;;;;;;;2.80;2.50;;;;;;;13.14;83.01;98871.19;5072689;28;20048;-65
2024/03/12 10:32:24;;;;;;;2.95;2.65;;;;;;;13.12;83.17;98862.72;5072834;28;20429;-64
2024/03/12 10:56:22;;;;;;;4.95;2.83;;;;;;;13.06;81.83;98874.78;5147680;27;20872;-65
2024/03/12 10:58:55;;;;;;;2.97;2.40;;;;;;;13.08;81.89;98876.44;5132062;27;20042;-65
2024/03/12 11:01:25;;;;;;;4.10;2.70;;;;;;;13.08;81.53;98876.44;5130733;28;20458;-66
2024/03/12 11:03:56;;;;;;;4.45;2.65;;;;;;;13.06;81.48;98867.97;5131929;27;20126;-64
2024/03/12 11:06:27;;;;;;;12.00;2.25;;;;;;;13.14;81.10;98881.44;5130749;28;20047;-65
2024/03/12 11:08:59;;;;;;;2.15;1.98;;;;;;;13.20;81.56;98876.16;5130842;28;20122;-64
2024/03/12 11:11:30;;;;;;;3.47;2.88;;;;;;;13.20;81.47;98865.91;5131112;28;20082;-65
2024/03/12 11:14:01;;;;;;;4.82;3.25;;;;;;;13.28;81.21;98879.38;5131567;27;20101;-65
2024/03/12 11:16:36;;;;;;;4.90;2.35;;;;;;;13.38;80.90;98870.59;5131686;27;20039;-65
2024/03/12 11:19:25;;;;;;;2.78;2.50;;;;;;;13.43;81.21;98879.00;5131982;27;20489;-65
2024/03/12 11:21:55;;;;;;;3.60;2.67;;;;;;;13.38;80.77;98880.84;5130798;28;20520;-65
2024/03/12 11:24:29;;;;;;;2.50;1.77;;;;;;;13.40;80.90;98883.34;5131731;27;20074;-65
2024/03/12 11:27:00;;;;;;;2.72;2.47;;;;;;;13.30;81.10;98872.50;5131605;28;20044;-67
2024/03/12 11:30:11;;;;;;;3.05;2.45;;;;;;;13.38;81.09;98885.97;5131596;28;20500;-68
2024/03/12 11:32:42;;;;;;;4.00;2.40;;;;;;;13.30;80.83;98882.75;5129891;27;20039;-65
2024/03/12 11:35:31;;;;;;;2.47;2.05;;;;;;;13.28;80.89;98874.25;5112977;28;20047;-65
2024/03/12 11:38:07;;;;;;;4.38;2.83;;;;;;;13.27;80.88;98874.28;5130164;28;20519;-64
2024/03/12 11:40:51;;;;;;;2.35;2.15;;;;;;;13.20;81.04;98881.28;5131642;28;20035;-63
2024/03/12 11:43:39;;;;;;;4.40;2.03;;;;;;;13.18;81.07;98877.91;5131479;27;20043;-65
2024/03/12 11:46:09;;;;;;;4.30;2.72;;;;;;;13.16;81.02;98868.59;5129892;28;20543;-63
2024/03/12 11:48:40;;;;;;;2.47;2.13;;;;;;;13.10;80.87;98874.69;5131249;28;20043;-63
2024/03/12 11:51:11;;;;;;;5.82;2.47;;;;;;;13.09;81.18;98873.03;5131179;28;20564;-63
2024/03/12 11:53:43;;;;;;;3.08;2.78;;;;;;;13.03;81.07;98877.44;5130912;27;20036;-64
2024/03/12 11:56:18;;;;;;;3.63;2.50;;;;;;;12.97;81.23;98882.66;5130741;28;20041;-63
2024/03/12 11:58:53;;;;;;;2.90;2.28;;;;;;;12.89;81.83;98875.16;5131114;27;20070;-64
2024/03/12 12:01:34;;;;;;;2.05;1.73;;;;;;;12.84;81.78;98879.53;5131027;27;20035;-64
2024/03/12 12:04:07;;;;;;;5.15;1.75;;;;;;;12.74;82.44;98870.41;5130646;27;20504;-64
2024/03/12 12:06:36;;;;;;;4.18;2.80;;;;;;;12.77;82.21;98880.56;5123611;27;20055;-64
2024/03/12 12:09:08;;;;;;;3.30;2.25;;;;;;;12.76;82.76;98873.78;5117075;28;20051;-65
2024/03/12 12:11:40;;;;;;;2.95;2.25;;;;;;;12.82;82.75;98873.63;5116813;28;20133;-64
2024/03/12 12:14:10;;;;;;;8.85;2.60;;;;;;;12.88;82.86;98878.63;5115753;28;20047;-63
2024/03/12 12:16:40;;;;;;;4.15;2.67;;;;;;;12.93;82.98;98876.78;5116308;28;20139;-64